Time;durP1;ratioP1;P1;durP2;ratioP2;P2;SDS_P1;SDS_P2;PMS_P1;PMS_P2;Temp;Humidity;BMP_temperature;BMP_pressure;BME280_temperature;BME280_humidity;BME280_pressure;Samples;Min_cycle;Max_cycle;Signal;HPM_P1;HPM_P2
2022/04/23 00:01:42;;;;;;;9.60;7.68;;;;;;;11.03;60.62;100567.53;5066909;28;20151;-72
2022/04/23 00:04:08;;;;;;;10.05;7.90;;;;;;;10.86;61.00;100572.88;5081803;28;20040;-72
2022/04/23 00:06:35;;;;;;;12.02;8.30;;;;;;;10.93;60.90;100564.59;5087253;28;20067;-72
2022/04/23 00:09:01;;;;;;;13.77;7.80;;;;;;;10.66;61.76;100563.47;5077071;28;20044;-71
2022/04/23 00:11:27;;;;;;;10.85;8.20;;;;;;;10.48;62.17;100567.97;5069018;28;20070;-71
2022/04/23 00:13:55;;;;;;;10.75;7.90;;;;;;;10.46;62.54;100568.94;5080889;28;20127;-71
2022/04/23 00:16:22;;;;;;;10.80;8.70;;;;;;;10.48;62.27;100570.56;5078041;28;20723;-71
2022/04/23 00:18:50;;;;;;;11.15;8.18;;;;;;;10.73;61.52;100572.72;5086427;28;20052;-71
2022/04/23 00:21:18;;;;;;;12.35;8.52;;;;;;;10.70;61.51;100571.09;5086153;28;20105;-71
2022/04/23 00:23:45;;;;;;;11.95;8.40;;;;;;;10.93;61.32;100572.47;5086229;28;20560;-71
2022/04/23 00:26:11;;;;;;;14.88;8.73;;;;;;;10.69;61.57;100577.28;5082187;28;20086;-71
2022/04/23 00:28:38;;;;;;;12.30;9.00;;;;;;;10.65;61.75;100567.88;5086123;28;20056;-71
2022/04/23 00:31:05;;;;;;;10.60;7.85;;;;;;;10.38;62.81;100564.16;5077457;28;20067;-71
2022/04/23 00:33:32;;;;;;;12.18;9.02;;;;;;;10.49;62.72;100567.03;5084836;28;20100;-71
2022/04/23 00:35:59;;;;;;;12.15;8.52;;;;;;;10.24;63.50;100564.88;5073314;28;20121;-71
2022/04/23 00:38:26;;;;;;;12.10;8.48;;;;;;;10.29;63.39;100558.53;5083431;28;20083;-71
2022/04/23 00:40:52;;;;;;;13.00;8.90;;;;;;;10.32;63.73;100556.59;5065398;28;20105;-71
2022/04/23 00:43:29;;;;;;;12.38;8.05;;;;;;;10.21;63.93;100548.47;5073028;28;20055;-71
2022/04/23 00:45:56;;;;;;;10.32;7.63;;;;;;;10.22;63.84;100552.78;5081194;28;20037;-71
2022/04/23 00:48:24;;;;;;;16.35;8.90;;;;;;;10.11;64.65;100555.09;5066104;28;20060;-71
2022/04/23 00:50:52;;;;;;;12.40;8.68;;;;;;;9.86;65.43;100546.81;5068359;28;20040;-71
2022/04/23 00:53:21;;;;;;;12.35;8.55;;;;;;;9.95;65.20;100554.19;5081223;28;20044;-71
2022/04/23 00:55:48;;;;;;;12.65;9.20;;;;;;;9.95;64.98;100552.41;5082486;28;20044;-71
2022/04/23 00:58:15;;;;;;;13.15;9.02;;;;;;;9.92;65.31;100546.50;5087599;28;20052;-71
2022/04/23 01:00:42;;;;;;;12.35;9.18;;;;;;;9.63;66.12;100555.84;5087735;28;20104;-71
2022/04/23 01:03:11;;;;;;;12.48;8.85;;;;;;;9.85;65.50;100547.75;5088325;28;20492;-71
2022/04/23 01:05:39;;;;;;;12.40;9.35;;;;;;;9.53;66.53;100545.00;5088176;28;20071;-71
2022/04/23 01:08:06;;;;;;;11.13;8.57;;;;;;;9.54;66.65;100549.28;5087686;28;20059;-71
2022/04/23 01:10:34;;;;;;;13.73;9.40;;;;;;;9.52;66.88;100545.91;5073729;28;20101;-71
2022/04/23 01:13:01;;;;;;;12.73;9.35;;;;;;;9.34;67.63;100557.31;5088169;28;20052;-71
2022/04/23 01:15:27;;;;;;;18.67;10.10;;;;;;;9.42;67.13;100547.31;5078929;28;20040;-71
2022/04/23 01:17:53;;;;;;;16.38;10.20;;;;;;;9.38;67.60;100561.47;5087696;28;20177;-71
2022/04/23 01:20:22;;;;;;;13.20;8.98;;;;;;;9.51;66.79;100549.44;5085615;28;20048;-71
2022/04/23 01:22:49;;;;;;;12.73;9.13;;;;;;;9.32;67.63;100546.06;5087692;28;20048;-71
2022/04/23 01:25:16;;;;;;;13.18;9.25;;;;;;;9.76;66.05;100546.44;5087589;28;20040;-71
2022/04/23 01:27:45;;;;;;;12.70;8.73;;;;;;;9.80;65.59;100542.72;5075593;28;20073;-71
2022/04/23 01:30:12;;;;;;;13.32;9.82;;;;;;;9.84;65.85;100544.25;5087545;28;20112;-71
2022/04/23 01:32:39;;;;;;;13.85;9.65;;;;;;;9.88;65.31;100548.41;5088075;28;20048;-71
2022/04/23 01:35:06;;;;;;;14.05;9.75;;;;;;;9.68;65.74;100546.00;5088018;28;20055;-71
2022/04/23 01:37:34;;;;;;;15.00;10.25;;;;;;;9.54;65.89;100546.66;5087911;28;20113;-71
2022/04/23 01:40:00;;;;;;;14.80;9.77;;;;;;;9.50;66.06;100545.13;5086867;28;20109;-71
2022/04/23 01:42:26;;;;;;;14.85;10.45;;;;;;;9.42;65.40;100549.06;5087876;28;20071;-71
2022/04/23 01:44:54;;;;;;;15.00;10.00;;;;;;;9.07;66.38;100566.50;5088958;28;20449;-71
2022/04/23 01:47:20;;;;;;;15.57;10.07;;;;;;;8.95;65.92;100554.84;5081786;28;20549;-71
2022/04/23 01:49:47;;;;;;;13.00;9.52;;;;;;;8.79;66.48;100562.56;5091178;28;20052;-71
2022/04/23 01:52:14;;;;;;;17.17;9.60;;;;;;;8.62;67.47;100557.28;5092007;28;20040;-71
2022/04/23 01:54:42;;;;;;;15.13;9.52;;;;;;;8.40;67.39;100558.34;5089803;28;20044;-71
2022/04/23 01:57:08;;;;;;;13.23;9.35;;;;;;;8.22;68.32;100566.06;5091744;28;20049;-71
2022/04/23 01:59:34;;;;;;;15.20;9.55;;;;;;;8.23;68.63;100561.69;5088543;28;20049;-71
2022/04/23 02:02:01;;;;;;;12.68;9.30;;;;;;;8.25;68.43;100568.53;5091286;28;20044;-71
2022/04/23 02:04:27;;;;;;;14.95;9.27;;;;;;;8.18;68.72;100561.88;5091714;28;20482;-71
2022/04/23 02:06:54;;;;;;;13.25;9.73;;;;;;;8.38;67.66;100571.50;5085795;28;20479;-71
2022/04/23 02:09:20;;;;;;;13.40;9.05;;;;;;;8.33;67.87;100563.00;5084738;28;20093;-71
2022/04/23 02:11:48;;;;;;;14.10;9.57;;;;;;;8.08;68.49;100565.84;5091152;28;20040;-71
2022/04/23 02:14:15;;;;;;;12.45;9.23;;;;;;;8.02;68.48;100562.66;5085187;28;20093;-71
2022/04/23 02:16:41;;;;;;;14.02;9.23;;;;;;;7.88;69.02;100570.22;5090281;28;20563;-71
2022/04/23 02:19:07;;;;;;;14.57;9.35;;;;;;;7.89;68.84;100562.31;5090120;28;20393;-71
2022/04/23 02:21:34;;;;;;;16.67;9.32;;;;;;;7.64;69.49;100567.75;5090894;28;20560;-71
2022/04/23 02:24:01;;;;;;;13.32;8.75;;;;;;;7.73;69.50;100567.34;5089401;28;20093;-71
2022/04/23 02:26:27;;;;;;;12.60;9.20;;;;;;;7.80;69.50;100563.56;5082458;28;20041;-71
2022/04/23 02:28:55;;;;;;;13.88;9.10;;;;;;;7.74;68.64;100568.19;5089207;28;20048;-71
2022/04/23 02:31:22;;;;;;;14.50;9.02;;;;;;;7.96;68.84;100568.13;5071768;28;20090;-71
2022/04/23 02:33:48;;;;;;;12.23;8.07;;;;;;;7.81;68.48;100567.88;5077745;28;20044;-73
2022/04/23 02:36:15;;;;;;;14.13;9.48;;;;;;;7.62;69.84;100563.50;5090829;28;20070;-73
2022/04/23 02:38:41;;;;;;;12.95;8.63;;;;;;;7.74;68.58;100574.28;5087705;28;20044;-72
2022/04/23 02:41:08;;;;;;;15.32;8.43;;;;;;;7.65;69.17;100573.81;5082217;28;20067;-73
2022/04/23 02:43:38;;;;;;;13.93;9.07;;;;;;;7.44;70.26;100572.09;5090548;28;20040;-73
2022/04/23 02:46:06;;;;;;;12.70;8.30;;;;;;;7.54;69.44;100582.06;5081676;28;20051;-73
2022/04/23 02:48:33;;;;;;;10.90;8.50;;;;;;;7.19;68.81;100580.09;5090813;28;20040;-73
2022/04/23 02:51:01;;;;;;;15.52;9.00;;;;;;;7.19;69.51;100569.66;5090145;28;20059;-73
2022/04/23 02:53:28;;;;;;;12.75;8.63;;;;;;;7.08;69.36;100577.91;5089810;28;20040;-73
2022/04/23 02:55:56;;;;;;;14.48;9.52;;;;;;;7.16;69.93;100575.00;5080104;28;20514;-73
2022/04/23 02:58:25;;;;;;;11.30;7.70;;;;;;;7.04;70.54;100578.94;5089728;28;20048;-73
2022/04/23 03:00:53;;;;;;;11.57;8.32;;;;;;;6.76;69.77;100581.75;5090329;28;20040;-73
2022/04/23 03:03:21;;;;;;;15.60;8.88;;;;;;;6.68;70.68;100582.97;5090579;28;20058;-73
2022/04/23 03:05:47;;;;;;;13.52;9.20;;;;;;;6.84;71.53;100582.31;5090397;28;20052;-73
2022/04/23 03:08:14;;;;;;;12.65;9.02;;;;;;;6.99;71.23;100585.22;5081854;28;20193;-74
2022/04/23 03:10:41;;;;;;;14.70;9.23;;;;;;;6.86;72.10;100582.25;5070438;28;20114;-72
2022/04/23 03:13:08;;;;;;;13.55;9.30;;;;;;;6.89;71.53;100589.97;5074185;28;20109;-73
2022/04/23 03:15:36;;;;;;;13.63;9.68;;;;;;;6.87;71.79;100594.41;5081673;28;20048;-73
2022/04/23 03:18:07;;;;;;;14.55;9.10;;;;;;;6.87;72.03;100588.34;5089181;28;20089;-73
2022/04/23 03:20:35;;;;;;;14.45;9.63;;;;;;;7.00;71.65;100590.38;5089850;28;20458;-73
2022/04/23 03:23:01;;;;;;;15.18;9.80;;;;;;;7.07;72.31;100588.38;5090101;28;20044;-73
2022/04/23 03:25:28;;;;;;;15.82;10.48;;;;;;;7.25;71.07;100580.69;5084947;28;20495;-72
2022/04/23 03:27:55;;;;;;;15.73;10.35;;;;;;;7.21;70.60;100588.69;5069813;28;20496;-73
2022/04/23 03:30:21;;;;;;;16.52;9.82;;;;;;;7.38;70.18;100591.47;5069849;28;20282;-72
2022/04/23 03:32:48;;;;;;;17.20;10.05;;;;;;;7.35;70.01;100591.59;5088654;28;20085;-73
2022/04/23 03:35:14;;;;;;;15.27;10.10;;;;;;;7.25;69.75;100580.69;5090162;28;20419;-72
2022/04/23 03:37:43;;;;;;;15.85;10.48;;;;;;;7.31;69.74;100580.44;5089516;28;20044;-73
2022/04/23 03:40:11;;;;;;;16.27;10.93;;;;;;;7.17;69.72;100587.94;5074486;28;20048;-72
2022/04/23 03:42:38;;;;;;;13.20;9.60;;;;;;;7.16;70.16;100581.06;5086904;28;20048;-73
2022/04/23 03:45:06;;;;;;;14.32;10.27;;;;;;;6.99;70.46;100590.44;5089700;28;20465;-73
2022/04/23 03:47:32;;;;;;;16.10;10.38;;;;;;;7.01;70.67;100584.28;5071727;28;20049;-73
2022/04/23 03:50:04;;;;;;;16.00;10.73;;;;;;;6.88;70.32;100590.84;5068740;28;20041;-73
2022/04/23 03:52:31;;;;;;;15.75;10.15;;;;;;;6.77;70.95;100595.63;5085272;28;20052;-73
2022/04/23 03:54:58;;;;;;;16.38;10.07;;;;;;;6.76;70.81;100597.38;5084783;28;20044;-71
2022/04/23 03:57:25;;;;;;;16.27;10.50;;;;;;;6.63;71.41;100596.16;5086453;28;20085;-71
2022/04/23 03:59:51;;;;;;;14.77;10.35;;;;;;;6.47;71.31;100600.25;5089214;28;20044;-70
2022/04/23 04:02:18;;;;;;;18.25;10.90;;;;;;;6.44;71.43;100599.50;5089517;28;20040;-71
2022/04/23 04:04:45;;;;;;;15.73;10.32;;;;;;;6.45;71.60;100590.78;5088375;28;20071;-71
2022/04/23 04:07:19;;;;;;;20.63;11.13;;;;;;;6.59;71.38;100597.19;5080447;28;20132;-71
2022/04/23 04:09:45;;;;;;;17.15;10.40;;;;;;;6.60;70.99;100600.66;5071195;28;20492;-71
2022/04/23 04:12:13;;;;;;;15.63;10.77;;;;;;;6.50;71.33;100596.69;5089054;28;20089;-71
2022/04/23 04:14:40;;;;;;;17.95;11.20;;;;;;;6.43;71.54;100605.66;5086711;28;20519;-71
2022/04/23 04:17:09;;;;;;;18.13;11.27;;;;;;;6.46;71.57;100598.56;5080307;28;20053;-71
2022/04/23 04:19:36;;;;;;;18.35;11.20;;;;;;;6.50;71.72;100602.75;5088135;28;20058;-72
2022/04/23 04:22:04;;;;;;;20.08;11.55;;;;;;;6.42;72.19;100598.72;5088732;28;20109;-71
2022/04/23 04:24:31;;;;;;;17.98;10.43;;;;;;;6.43;72.07;100603.88;5079898;28;20117;-71
2022/04/23 04:27:00;;;;;;;18.38;11.32;;;;;;;6.49;71.84;100600.19;5075740;28;20094;-71
2022/04/23 04:29:29;;;;;;;17.77;10.98;;;;;;;6.59;71.77;100609.38;5068261;28;20048;-71
2022/04/23 04:31:55;;;;;;;17.48;10.35;;;;;;;6.51;71.68;100604.44;5079009;28;20129;-70
2022/04/23 04:34:24;;;;;;;16.67;10.82;;;;;;;6.80;71.25;100612.00;5089406;28;20044;-70
2022/04/23 04:36:51;;;;;;;18.02;11.10;;;;;;;6.78;71.85;100610.38;5089106;28;20403;-71
2022/04/23 04:39:19;;;;;;;16.25;11.30;;;;;;;6.76;71.17;100607.00;5084794;28;20048;-71
2022/04/23 04:41:46;;;;;;;16.67;11.57;;;;;;;6.93;71.19;100614.16;5081710;28;20411;-71
2022/04/23 04:44:13;;;;;;;18.08;11.02;;;;;;;7.09;71.12;100616.13;5088520;28;20051;-72
2022/04/23 04:46:40;;;;;;;16.70;10.65;;;;;;;7.26;70.07;100610.22;5087660;28;20680;-71
2022/04/23 04:49:07;;;;;;;18.45;11.15;;;;;;;7.35;69.86;100612.47;5086340;28;20502;-71
2022/04/23 04:51:36;;;;;;;16.90;11.27;;;;;;;7.31;70.17;100622.19;5088408;28;20518;-71
2022/04/23 04:54:03;;;;;;;16.45;10.75;;;;;;;7.36;70.88;100608.91;5088196;28;20469;-71
2022/04/23 04:56:29;;;;;;;21.65;10.38;;;;;;;7.73;69.92;100616.09;5081869;28;20085;-72
2022/04/23 04:58:56;;;;;;;17.58;11.27;;;;;;;7.96;69.69;100615.13;5087575;28;20043;-73
2022/04/23 05:01:22;;;;;;;14.93;10.65;;;;;;;8.14;69.23;100609.09;5088404;28;20052;-73
2022/04/23 05:03:51;;;;;;;15.98;10.88;;;;;;;8.44;68.32;100615.63;5088224;28;20093;-73
2022/04/23 05:06:18;;;;;;;16.85;11.07;;;;;;;8.62;67.64;100621.78;5087607;28;20125;-74
2022/04/23 05:08:44;;;;;;;17.67;11.25;;;;;;;8.40;68.63;100616.66;5079387;28;20557;-74
2022/04/23 05:11:10;;;;;;;18.73;11.52;;;;;;;8.67;67.97;100622.41;5073024;28;20093;-74
2022/04/23 05:13:37;;;;;;;18.92;12.25;;;;;;;8.90;67.37;100622.22;5087948;28;20048;-74
2022/04/23 05:16:06;;;;;;;14.93;9.98;;;;;;;8.55;69.08;100621.22;5088249;28;20092;-74
2022/04/23 05:18:32;;;;;;;16.77;11.95;;;;;;;9.02;68.31;100626.84;5087943;28;20513;-74
2022/04/23 05:21:00;;;;;;;16.95;11.32;;;;;;;9.32;67.00;100624.56;5086289;28;20180;-74
2022/04/23 05:23:26;;;;;;;15.50;11.00;;;;;;;9.63;66.30;100619.53;5087759;28;20043;-74
2022/04/23 05:25:53;;;;;;;16.83;11.23;;;;;;;10.23;64.95;100622.59;5081533;28;20098;-74
2022/04/23 05:28:19;;;;;;;15.13;10.85;;;;;;;10.30;64.71;100631.84;5071427;28;20036;-73
2022/04/23 05:30:46;;;;;;;20.38;11.30;;;;;;;10.51;64.58;100625.47;5087424;28;20043;-73
2022/04/23 05:33:12;;;;;;;16.10;11.02;;;;;;;10.87;62.90;100614.75;5071215;28;20045;-73
2022/04/23 05:35:39;;;;;;;14.45;11.05;;;;;;;11.10;62.49;100621.34;5059198;28;20082;-73
2022/04/23 05:38:07;;;;;;;15.13;11.13;;;;;;;11.35;60.90;100621.66;5067432;28;20102;-73
2022/04/23 05:40:33;;;;;;;15.75;11.40;;;;;;;11.62;60.66;100617.47;5079186;28;20090;-73
2022/04/23 05:43:00;;;;;;;16.77;11.60;;;;;;;12.09;59.60;100629.63;5067248;28;20040;-73
2022/04/23 05:45:27;;;;;;;15.18;11.23;;;;;;;12.47;57.35;100632.59;5067706;28;20041;-74
2022/04/23 05:47:54;;;;;;;13.15;10.52;;;;;;;12.45;56.92;100634.47;5067968;28;20393;-73
2022/04/23 05:50:20;;;;;;;16.65;11.35;;;;;;;12.44;57.16;100636.25;5079434;28;20040;-73
2022/04/23 05:52:47;;;;;;;11.75;9.75;;;;;;;12.02;56.43;100634.41;5087872;28;20203;-72
2022/04/23 05:55:15;;;;;;;13.00;11.43;;;;;;;12.05;57.54;100631.59;5081315;28;20044;-72
2022/04/23 05:57:41;;;;;;;13.35;10.13;;;;;;;12.11;56.31;100635.66;5078616;28;20072;-72
2022/04/23 06:00:10;;;;;;;14.25;10.43;;;;;;;11.97;57.62;100635.63;5087157;28;20075;-74
2022/04/23 06:02:37;;;;;;;14.68;10.88;;;;;;;12.17;55.94;100635.28;5087687;28;20093;-73
2022/04/23 06:05:03;;;;;;;14.40;10.93;;;;;;;12.54;56.33;100644.41;5087858;28;20513;-73
2022/04/23 06:07:30;;;;;;;14.05;10.63;;;;;;;11.93;57.68;100649.88;5078495;28;20647;-73
2022/04/23 06:09:56;;;;;;;14.55;11.15;;;;;;;12.16;57.37;100638.84;5066032;28;20044;-73
2022/04/23 06:12:24;;;;;;;13.50;10.60;;;;;;;12.69;56.24;100641.69;5067708;28;20044;-73
2022/04/23 06:14:50;;;;;;;17.30;10.02;;;;;;;12.53;55.02;100642.72;5083454;28;20412;-73
2022/04/23 06:17:17;;;;;;;14.77;10.45;;;;;;;13.04;54.57;100644.72;5087858;28;20044;-73
2022/04/23 06:19:43;;;;;;;14.75;10.75;;;;;;;13.28;53.75;100657.31;5086824;28;20052;-73
2022/04/23 06:22:10;;;;;;;12.85;10.52;;;;;;;13.28;54.25;100657.31;5087674;28;20495;-73
2022/04/23 06:24:36;;;;;;;13.27;10.43;;;;;;;13.31;52.58;100657.13;5072267;28;20044;-72
2022/04/23 06:27:03;;;;;;;13.30;10.88;;;;;;;13.53;53.78;100654.78;5061179;28;20119;-72
2022/04/23 06:29:31;;;;;;;14.38;10.85;;;;;;;13.34;53.38;100659.59;5064915;28;20047;-72
2022/04/23 06:31:57;;;;;;;12.80;10.13;;;;;;;13.69;53.73;100652.00;5068551;28;20094;-72
2022/04/23 06:34:23;;;;;;;13.23;10.18;;;;;;;13.36;52.04;100666.44;5069666;28;20094;-72
2022/04/23 06:36:50;;;;;;;13.93;10.90;;;;;;;13.50;54.07;100655.00;5071252;28;20405;-72
2022/04/23 06:39:16;;;;;;;13.38;10.88;;;;;;;13.74;51.92;100649.91;5069651;28;20492;-72
2022/04/23 06:41:42;;;;;;;11.98;9.95;;;;;;;14.05;51.08;100645.13;5074941;28;20045;-72
2022/04/23 06:44:09;;;;;;;15.38;9.98;;;;;;;13.69;51.29;100659.91;5070053;28;20048;-72
2022/04/23 06:46:36;;;;;;;17.38;10.60;;;;;;;14.49;49.87;100652.66;5070759;28;20098;-72
2022/04/23 06:49:05;;;;;;;13.25;10.65;;;;;;;14.95;50.26;100646.81;5070117;28;20393;-72
2022/04/23 06:51:31;;;;;;;13.82;9.25;;;;;;;15.03;46.66;100644.47;5070442;28;20052;-72
2022/04/23 06:53:57;;;;;;;13.23;10.20;;;;;;;15.24;47.12;100648.19;5084083;28;20120;-72
2022/04/23 06:56:24;;;;;;;11.68;9.35;;;;;;;16.00;46.58;100638.09;5083113;28;20125;-71
2022/04/23 06:58:50;;;;;;;12.93;9.43;;;;;;;15.45;46.74;100664.28;5076743;28;20113;-71
2022/04/23 07:01:17;;;;;;;10.50;8.90;;;;;;;15.21;45.84;100651.06;5090810;28;20048;-72
2022/04/23 07:03:45;;;;;;;11.90;8.50;;;;;;;14.59;46.77;100655.53;5090213;28;20572;-71
2022/04/23 07:06:11;;;;;;;12.05;9.52;;;;;;;14.82;47.60;100656.56;5084594;28;20492;-72
2022/04/23 07:08:39;;;;;;;19.10;9.40;;;;;;;14.89;46.93;100653.34;5090017;28;20517;-71
2022/04/23 07:11:05;;;;;;;13.05;9.00;;;;;;;14.77;45.90;100654.25;5089195;28;20059;-71
2022/04/23 07:13:32;;;;;;;12.32;9.77;;;;;;;14.98;46.03;100652.72;5090057;28;20052;-71
2022/04/23 07:15:59;;;;;;;11.20;8.48;;;;;;;15.29;44.53;100653.16;5090013;28;20123;-71
2022/04/23 07:18:25;;;;;;;11.73;8.70;;;;;;;15.46;43.75;100647.47;5089529;28;20043;-71
2022/04/23 07:20:53;;;;;;;11.18;8.77;;;;;;;14.68;45.86;100644.31;5089462;28;20060;-72
2022/04/23 07:26:06;;;;;;;12.55;9.20;;;;;;;15.58;43.96;100644.81;5070727;28;20119;-71
2022/04/23 07:28:32;;;;;;;10.35;7.32;;;;;;;16.29;41.92;100653.59;5074308;28;20044;-71
2022/04/23 07:31:00;;;;;;;12.45;8.80;;;;;;;16.20;42.62;100644.53;5088334;28;20044;-71
2022/04/23 07:38:56;;;;;;;8.93;7.75;;;;;;;16.63;41.25;100638.63;5068193;28;20066;-71
2022/04/23 07:41:23;;;;;;;10.95;7.50;;;;;;;16.40;41.65;100641.22;5070111;28;20129;-70
2022/04/23 07:43:49;;;;;;;9.90;8.30;;;;;;;16.42;40.36;100638.44;5084539;28;20105;-70
2022/04/23 07:46:15;;;;;;;7.45;6.07;;;;;;;16.27;39.21;100637.81;5089832;28;20052;-70
2022/04/23 07:48:41;;;;;;;9.45;6.22;;;;;;;16.37;39.65;100637.97;5089224;28;20116;-70
2022/04/23 07:51:08;;;;;;;8.18;6.57;;;;;;;16.22;39.07;100626.72;5089644;28;20472;-71
2022/04/23 07:53:36;;;;;;;7.53;5.13;;;;;;;15.87;39.83;100653.22;5089573;28;20052;-71
2022/04/23 07:56:02;;;;;;;6.95;5.53;;;;;;;15.57;39.77;100640.47;5080979;28;20093;-71
2022/04/23 07:58:28;;;;;;;11.13;5.15;;;;;;;15.44;40.49;100634.41;5088904;28;20044;-73
2022/04/23 08:00:55;;;;;;;8.35;6.30;;;;;;;15.61;40.36;100638.47;5089350;28;20160;-71
2022/04/23 08:03:21;;;;;;;7.72;5.60;;;;;;;16.03;40.17;100627.31;5073887;28;20044;-71
2022/04/23 08:05:48;;;;;;;7.85;6.68;;;;;;;15.89;39.55;100629.31;5076481;28;20116;-71
2022/04/23 08:08:17;;;;;;;9.85;5.78;;;;;;;16.50;38.69;100625.44;5085313;28;20471;-72
2022/04/23 08:10:45;;;;;;;6.40;5.68;;;;;;;17.20;38.25;100630.47;5088425;28;20052;-71
2022/04/23 08:13:11;;;;;;;8.40;5.57;;;;;;;16.90;37.70;100631.97;5089153;28;20063;-72
2022/04/23 08:15:39;;;;;;;6.22;4.60;;;;;;;16.75;37.48;100629.69;5089236;28;20105;-72
2022/04/23 08:18:06;;;;;;;8.10;5.97;;;;;;;17.38;36.65;100637.78;5089229;28;20044;-72
2022/04/23 08:20:32;;;;;;;13.07;5.43;;;;;;;17.38;36.34;100618.38;5088687;28;20051;-73
2022/04/23 08:22:59;;;;;;;7.32;5.32;;;;;;;17.59;35.78;100615.81;5088989;28;20093;-72
2022/04/23 08:25:25;;;;;;;8.02;5.38;;;;;;;17.37;36.42;100625.47;5080394;28;20040;-71
2022/04/23 08:27:55;;;;;;;7.28;5.10;;;;;;;16.72;39.58;100640.53;5069102;28;20133;-72
2022/04/23 08:30:34;;;;;;;7.68;6.20;;;;;;;16.86;38.15;100619.09;5067686;28;20048;-72
2022/04/23 08:33:01;;;;;;;9.43;5.13;;;;;;;17.18;37.34;100627.97;5068606;28;20056;-71
2022/04/23 08:35:27;;;;;;;9.35;4.43;;;;;;;16.81;36.70;100634.53;5067746;28;20754;-71
2022/04/23 08:37:53;;;;;;;7.63;5.65;;;;;;;15.74;39.23;100620.72;5064446;28;20484;-72
2022/04/23 08:40:20;;;;;;;11.00;5.65;;;;;;;16.22;38.31;100626.72;5067767;28;20048;-71
2022/04/23 08:42:46;;;;;;;7.03;5.60;;;;;;;16.25;39.03;100631.81;5068400;28;20060;-72
2022/04/23 08:45:14;;;;;;;12.35;5.35;;;;;;;16.34;39.03;100612.56;5068365;28;20098;-72
2022/04/23 08:47:45;;;;;;;6.43;5.07;;;;;;;16.65;38.12;100619.00;5072358;28;20106;-72
2022/04/23 08:50:12;;;;;;;6.65;5.72;;;;;;;16.38;38.24;100605.22;5067555;28;20045;-72
2022/04/23 08:52:41;;;;;;;6.97;5.68;;;;;;;16.53;37.96;100601.38;5066205;28;20044;-72
2022/04/23 08:55:11;;;;;;;7.97;5.47;;;;;;;16.91;37.39;100598.38;5067112;28;20052;-72
2022/04/23 08:57:38;;;;;;;8.23;5.78;;;;;;;16.83;40.56;100608.75;5066728;28;20053;-72
2022/04/23 09:00:08;;;;;;;9.85;5.82;;;;;;;17.03;38.00;100610.66;5067437;28;20056;-72
2022/04/23 09:02:36;;;;;;;5.63;4.88;;;;;;;16.95;38.87;100607.78;5071979;28;20051;-71
2022/04/23 09:05:03;;;;;;;6.63;4.95;;;;;;;16.94;37.89;100604.28;5067849;28;20045;-71
2022/04/23 09:07:30;;;;;;;7.00;5.22;;;;;;;17.96;36.67;100594.03;5067777;28;20044;-71
2022/04/23 09:09:57;;;;;;;7.95;5.95;;;;;;;18.00;36.82;100584.00;5067039;28;20045;-71
2022/04/23 09:12:26;;;;;;;7.55;5.50;;;;;;;18.27;36.98;100580.81;5068439;28;20451;-71
2022/04/23 09:14:54;;;;;;;7.43;5.32;;;;;;;18.66;35.38;100592.47;5066549;28;20060;-71
2022/04/23 09:25:49;;;;;;;7.25;5.28;;;;;;;18.42;35.80;100575.00;5057603;28;20616;-73
2022/04/23 09:28:17;;;;;;;6.15;5.20;;;;;;;18.35;36.61;100579.19;5066275;28;20103;-73
2022/04/23 09:30:43;;;;;;;6.60;5.25;;;;;;;18.16;34.37;100588.84;5066915;28;20044;-72
2022/04/23 09:33:10;;;;;;;6.30;4.60;;;;;;;17.02;37.73;100593.91;5067442;28;20581;-71
2022/04/23 09:35:52;;;;;;;19.70;6.03;;;;;;;17.86;40.60;100581.66;5081186;28;20044;-71
2022/04/23 09:38:19;;;;;;;6.40;5.03;;;;;;;18.68;36.63;100571.91;5079744;28;20060;-71
2022/04/23 09:40:50;;;;;;;7.10;5.13;;;;;;;18.76;36.79;100585.38;5067268;28;20590;-71
2022/04/23 09:43:25;;;;;;;7.47;4.38;;;;;;;18.23;34.80;100574.06;5067721;28;20048;-71
2022/04/23 09:45:59;;;;;;;6.28;4.75;;;;;;;18.45;36.53;100572.09;5067643;28;20044;-70
2022/04/23 09:48:26;;;;;;;8.13;5.07;;;;;;;17.88;36.88;100569.13;5067923;28;20041;-71
2022/04/23 09:50:53;;;;;;;7.80;5.07;;;;;;;18.42;35.24;100568.84;5066457;28;20177;-70
2022/04/23 09:53:21;;;;;;;6.93;5.15;;;;;;;18.68;35.75;100569.25;5067460;28;20044;-70
2022/04/23 09:55:49;;;;;;;5.68;4.50;;;;;;;18.21;35.49;100574.22;5063290;28;20045;-70
2022/04/23 09:58:16;;;;;;;5.32;4.20;;;;;;;18.15;35.41;100574.72;5067386;28;20048;-70
2022/04/23 10:00:45;;;;;;;12.40;4.45;;;;;;;17.74;35.19;100580.03;5066762;28;20082;-67
2022/04/23 10:03:12;;;;;;;5.95;4.75;;;;;;;17.37;36.40;100569.81;5066920;28;20040;-67
2022/04/23 10:05:41;;;;;;;6.75;4.40;;;;;;;17.45;35.99;100564.72;5067841;28;20048;-67
2022/04/23 10:08:14;;;;;;;5.78;4.60;;;;;;;18.38;37.61;100568.28;5070195;28;20040;-68
2022/04/23 10:10:44;;;;;;;6.47;4.00;;;;;;;18.54;35.21;100573.16;5069918;28;20080;-67
2022/04/23 10:13:12;;;;;;;6.10;4.55;;;;;;;18.20;34.95;100561.91;5070843;28;20045;-67
2022/04/23 10:15:40;;;;;;;6.47;4.57;;;;;;;18.36;36.29;100554.31;5070906;28;20052;-67
2022/04/23 10:18:09;;;;;;;4.43;3.60;;;;;;;18.02;34.68;100550.22;5071061;28;20049;-67
2022/04/23 10:20:37;;;;;;;5.55;4.18;;;;;;;18.41;35.37;100559.22;5070336;28;20045;-67
2022/04/23 10:23:12;;;;;;;5.95;4.50;;;;;;;18.37;35.80;100534.75;5075046;28;20131;-67
2022/04/23 10:25:49;;;;;;;4.60;3.90;;;;;;;18.64;33.96;100551.91;5066501;28;20105;-67
2022/04/23 10:28:17;;;;;;;5.18;3.42;;;;;;;17.97;35.29;100541.81;5085988;28;20545;-67
2022/04/23 10:30:45;;;;;;;6.15;4.28;;;;;;;18.72;33.88;100529.03;5090407;28;20080;-68
2022/04/23 10:33:26;;;;;;;4.97;4.00;;;;;;;19.31;34.71;100526.28;5081393;28;20055;-68
2022/04/23 10:36:06;;;;;;;7.65;4.15;;;;;;;20.02;33.29;100531.25;5070329;28;20511;-68
2022/04/23 10:38:32;;;;;;;5.20;3.88;;;;;;;20.28;33.29;100533.16;5068434;28;20048;-68
2022/04/23 10:41:00;;;;;;;6.80;4.05;;;;;;;20.32;31.83;100521.22;5086641;28;20044;-68
2022/04/23 10:43:27;;;;;;;4.55;3.50;;;;;;;20.57;31.51;100524.19;5089282;28;20506;-68
2022/04/23 10:45:54;;;;;;;5.30;3.85;;;;;;;19.26;31.97;100515.22;5082788;28;20068;-67
2022/04/23 10:48:28;;;;;;;5.05;3.65;;;;;;;18.26;33.97;100518.91;5087018;28;20093;-67
2022/04/23 10:51:16;;;;;;;5.22;3.95;;;;;;;18.63;33.05;100507.75;5082161;28;20532;-67
2022/04/23 10:53:55;;;;;;;10.20;5.22;;;;;;;18.70;34.19;100517.69;5090136;28;20131;-67
2022/04/23 10:56:23;;;;;;;5.78;4.28;;;;;;;18.88;32.84;100501.94;5082068;28;20120;-67
2022/04/23 10:58:52;;;;;;;5.80;4.45;;;;;;;19.79;32.94;100497.00;5088694;28;20048;-67
2022/04/23 11:01:23;;;;;;;4.55;3.45;;;;;;;19.73;32.39;100499.41;5090104;28;20511;-67
2022/04/23 11:04:12;;;;;;;6.45;3.95;;;;;;;19.76;31.65;100499.97;5089655;28;20040;-67
2022/04/23 11:12:37;;;;;;;7.00;4.50;;;;;;;19.68;33.74;100491.00;5073768;28;20076;-67
2022/04/23 11:15:15;;;;;;;6.80;4.70;;;;;;;19.67;33.67;100491.97;5069960;28;20049;-67
2022/04/23 11:17:58;;;;;;;5.45;4.22;;;;;;;20.37;30.97;100484.34;5069419;28;20048;-67
2022/04/23 11:20:29;;;;;;;4.97;4.10;;;;;;;20.34;32.73;100483.81;5069448;28;20454;-67
2022/04/23 11:22:56;;;;;;;9.32;4.47;;;;;;;20.09;32.06;100484.44;5089889;28;20074;-67
2022/04/23 11:25:22;;;;;;;8.63;4.72;;;;;;;20.35;33.15;100483.66;5086764;28;20040;-67
2022/04/23 11:27:50;;;;;;;7.13;4.93;;;;;;;21.02;35.31;100466.41;5069667;28;20044;-66
2022/04/23 11:30:27;;;;;;;5.82;4.63;;;;;;;21.32;33.47;100460.66;5069087;28;20123;-66
2022/04/23 11:32:53;;;;;;;5.43;4.50;;;;;;;21.76;32.03;100456.16;5069560;28;20048;-66
2022/04/23 11:35:27;;;;;;;5.32;3.92;;;;;;;22.36;32.38;100466.00;5069879;28;20074;-66
2022/04/23 11:37:54;;;;;;;8.02;4.20;;;;;;;22.54;30.17;100450.69;5079204;28;20381;-66
2022/04/23 11:40:24;;;;;;;7.78;4.43;;;;;;;22.72;30.70;100451.44;5087143;28;20071;-66
2022/04/23 11:42:51;;;;;;;6.25;4.32;;;;;;;22.29;30.79;100452.44;5089967;28;20040;-67
2022/04/23 11:45:18;;;;;;;6.53;4.28;;;;;;;22.96;30.34;100448.78;5089851;28;20056;-67